sensor_id;sensor_type;location;lat;lon;timestamp;temperature;humidity
73777;DHT22;62088;50.240;2.696;2022-08-19T00:01:35;19.20;74.00
73777;DHT22;62088;50.240;2.696;2022-08-19T00:04:07;19.30;74.20
73777;DHT22;62088;50.240;2.696;2022-08-19T00:06:36;19.20;74.40
73777;DHT22;62088;50.240;2.696;2022-08-19T00:09:05;19.20;74.60
73777;DHT22;62088;50.240;2.696;2022-08-19T00:11:33;19.20;74.80
73777;DHT22;62088;50.240;2.696;2022-08-19T00:14:06;19.20;74.90
73777;DHT22;62088;50.240;2.696;2022-08-19T00:16:34;19.20;75.10
73777;DHT22;62088;50.240;2.696;2022-08-19T00:19:01;19.20;75.20
73777;DHT22;62088;50.240;2.696;2022-08-19T00:21:28;19.30;75.30
73777;DHT22;62088;50.240;2.696;2022-08-19T00:23:57;19.30;75.40
73777;DHT22;62088;50.240;2.696;2022-08-19T00:26:28;19.30;75.50
73777;DHT22;62088;50.240;2.696;2022-08-19T00:28:55;19.30;75.60
73777;DHT22;62088;50.240;2.696;2022-08-19T00:31:22;19.30;75.60
73777;DHT22;62088;50.240;2.696;2022-08-19T00:33:49;19.40;75.60
73777;DHT22;62088;50.240;2.696;2022-08-19T00:36:17;19.40;75.70
73777;DHT22;62088;50.240;2.696;2022-08-19T00:38:44;19.40;75.60
73777;DHT22;62088;50.240;2.696;2022-08-19T00:41:15;19.40;75.70
73777;DHT22;62088;50.240;2.696;2022-08-19T00:46:33;19.40;75.80
73777;DHT22;62088;50.240;2.696;2022-08-19T00:49:30;19.40;75.80
73777;DHT22;62088;50.240;2.696;2022-08-19T00:52:17;19.40;75.80
73777;DHT22;62088;50.240;2.696;2022-08-19T00:54:47;19.50;75.80
73777;DHT22;62088;50.240;2.696;2022-08-19T00:57:22;19.50;75.80
73777;DHT22;62088;50.240;2.696;2022-08-19T00:59:54;19.50;75.70
73777;DHT22;62088;50.240;2.696;2022-08-19T01:02:30;19.50;75.80
73777;DHT22;62088;50.240;2.696;2022-08-19T01:05:00;19.60;75.70
73777;DHT22;62088;50.240;2.696;2022-08-19T01:07:28;19.60;75.70
73777;DHT22;62088;50.240;2.696;2022-08-19T01:10:08;19.60;75.70
73777;DHT22;62088;50.240;2.696;2022-08-19T01:12:37;19.60;75.70
73777;DHT22;62088;50.240;2.696;2022-08-19T01:15:07;19.70;75.70
73777;DHT22;62088;50.240;2.696;2022-08-19T01:17:38;19.70;75.70
73777;DHT22;62088;50.240;2.696;2022-08-19T01:20:07;19.70;75.60
73777;DHT22;62088;50.240;2.696;2022-08-19T01:22:43;19.70;75.70
73777;DHT22;62088;50.240;2.696;2022-08-19T01:25:13;19.70;75.70
73777;DHT22;62088;50.240;2.696;2022-08-19T01:27:45;19.70;75.70
73777;DHT22;62088;50.240;2.696;2022-08-19T01:30:22;19.70;75.70
73777;DHT22;62088;50.240;2.696;2022-08-19T01:32:50;19.70;75.70
73777;DHT22;62088;50.240;2.696;2022-08-19T01:35:18;19.80;75.80
73777;DHT22;62088;50.240;2.696;2022-08-19T01:38:17;19.80;75.80
73777;DHT22;62088;50.240;2.696;2022-08-19T01:40:42;19.80;75.80
73777;DHT22;62088;50.240;2.696;2022-08-19T01:43:09;19.80;75.80
73777;DHT22;62088;50.240;2.696;2022-08-19T01:45:37;19.80;75.80
73777;DHT22;62088;50.240;2.696;2022-08-19T01:48:07;19.90;75.80
73777;DHT22;62088;50.240;2.696;2022-08-19T01:50:35;19.90;75.80
73777;DHT22;62088;50.240;2.696;2022-08-19T01:53:07;19.90;75.80
73777;DHT22;62088;50.240;2.696;2022-08-19T01:55:37;19.90;75.90
73777;DHT22;62088;50.240;2.696;2022-08-19T01:58:13;19.90;75.90
73777;DHT22;62088;50.240;2.696;2022-08-19T02:00:41;19.90;76.00
73777;DHT22;62088;50.240;2.696;2022-08-19T02:03:09;19.90;76.00
73777;DHT22;62088;50.240;2.696;2022-08-19T02:05:37;19.90;76.00
73777;DHT22;62088;50.240;2.696;2022-08-19T02:08:04;19.90;76.10
73777;DHT22;62088;50.240;2.696;2022-08-19T02:10:31;19.90;76.10
73777;DHT22;62088;50.240;2.696;2022-08-19T02:12:58;19.90;76.10
73777;DHT22;62088;50.240;2.696;2022-08-19T02:15:25;19.90;76.20
73777;DHT22;62088;50.240;2.696;2022-08-19T02:17:52;19.90;76.20
73777;DHT22;62088;50.240;2.696;2022-08-19T02:20:19;19.90;76.30
73777;DHT22;62088;50.240;2.696;2022-08-19T02:22:46;19.90;76.30
73777;DHT22;62088;50.240;2.696;2022-08-19T02:25:14;19.80;76.30
73777;DHT22;62088;50.240;2.696;2022-08-19T02:27:42;19.80;76.40
73777;DHT22;62088;50.240;2.696;2022-08-19T02:30:14;19.80;76.50
73777;DHT22;62088;50.240;2.696;2022-08-19T02:32:42;19.80;76.50
73777;DHT22;62088;50.240;2.696;2022-08-19T02:35:14;19.80;76.50
73777;DHT22;62088;50.240;2.696;2022-08-19T02:37:42;19.80;76.60
73777;DHT22;62088;50.240;2.696;2022-08-19T02:40:29;19.80;76.70
73777;DHT22;62088;50.240;2.696;2022-08-19T02:42:56;19.80;76.80
73777;DHT22;62088;50.240;2.696;2022-08-19T02:45:23;19.70;76.90
73777;DHT22;62088;50.240;2.696;2022-08-19T02:47:50;19.70;76.90
73777;DHT22;62088;50.240;2.696;2022-08-19T02:50:17;19.70;77.00
73777;DHT22;62088;50.240;2.696;2022-08-19T02:52:45;19.70;77.00
73777;DHT22;62088;50.240;2.696;2022-08-19T02:55:12;19.60;77.10
73777;DHT22;62088;50.240;2.696;2022-08-19T02:57:39;19.60;77.20
73777;DHT22;62088;50.240;2.696;2022-08-19T03:00:07;19.60;77.30
73777;DHT22;62088;50.240;2.696;2022-08-19T03:02:35;19.60;77.40
73777;DHT22;62088;50.240;2.696;2022-08-19T03:05:03;19.60;77.50
73777;DHT22;62088;50.240;2.696;2022-08-19T03:07:31;19.60;77.60
73777;DHT22;62088;50.240;2.696;2022-08-19T03:09:58;19.60;77.60
73777;DHT22;62088;50.240;2.696;2022-08-19T03:12:25;19.60;77.60
73777;DHT22;62088;50.240;2.696;2022-08-19T03:14:52;19.60;77.70
73777;DHT22;62088;50.240;2.696;2022-08-19T03:17:20;19.60;77.70
73777;DHT22;62088;50.240;2.696;2022-08-19T03:19:47;19.60;77.70
73777;DHT22;62088;50.240;2.696;2022-08-19T03:22:14;19.60;77.60
73777;DHT22;62088;50.240;2.696;2022-08-19T03:24:41;19.50;77.60
73777;DHT22;62088;50.240;2.696;2022-08-19T03:27:08;19.60;77.60
73777;DHT22;62088;50.240;2.696;2022-08-19T03:29:36;19.50;77.60
73777;DHT22;62088;50.240;2.696;2022-08-19T03:32:10;19.50;77.60
73777;DHT22;62088;50.240;2.696;2022-08-19T03:34:57;19.40;77.70
73777;DHT22;62088;50.240;2.696;2022-08-19T03:37:23;19.40;77.70
73777;DHT22;62088;50.240;2.696;2022-08-19T03:39:51;19.40;77.90
73777;DHT22;62088;50.240;2.696;2022-08-19T03:42:18;19.40;77.90
73777;DHT22;62088;50.240;2.696;2022-08-19T03:45:06;19.40;78.00
73777;DHT22;62088;50.240;2.696;2022-08-19T03:47:34;19.40;78.00
73777;DHT22;62088;50.240;2.696;2022-08-19T03:50:01;19.40;78.10
73777;DHT22;62088;50.240;2.696;2022-08-19T03:52:28;19.40;78.10
73777;DHT22;62088;50.240;2.696;2022-08-19T03:54:55;19.40;78.10
73777;DHT22;62088;50.240;2.696;2022-08-19T03:57:22;19.40;78.10
73777;DHT22;62088;50.240;2.696;2022-08-19T03:59:58;19.40;78.10
73777;DHT22;62088;50.240;2.696;2022-08-19T04:02:40;19.40;78.10
73777;DHT22;62088;50.240;2.696;2022-08-19T04:05:24;19.40;78.20
73777;DHT22;62088;50.240;2.696;2022-08-19T04:07:53;19.40;78.20
73777;DHT22;62088;50.240;2.696;2022-08-19T04:10:21;19.40;78.20
73777;DHT22;62088;50.240;2.696;2022-08-19T04:12:49;19.40;78.20
73777;DHT22;62088;50.240;2.696;2022-08-19T04:15:16;19.40;78.20
73777;DHT22;62088;50.240;2.696;2022-08-19T04:17:43;19.40;78.20
73777;DHT22;62088;50.240;2.696;2022-08-19T04:20:10;19.40;78.30
73777;DHT22;62088;50.240;2.696;2022-08-19T04:22:37;19.40;78.30
73777;DHT22;62088;50.240;2.696;2022-08-19T04:25:04;19.40;78.40
73777;DHT22;62088;50.240;2.696;2022-08-19T04:27:31;19.40;78.40
73777;DHT22;62088;50.240;2.696;2022-08-19T04:30:00;19.30;78.40
73777;DHT22;62088;50.240;2.696;2022-08-19T04:32:26;19.30;78.50
73777;DHT22;62088;50.240;2.696;2022-08-19T04:34:53;19.30;78.50
73777;DHT22;62088;50.240;2.696;2022-08-19T04:37:42;19.30;78.60
73777;DHT22;62088;50.240;2.696;2022-08-19T04:40:09;19.30;78.60
73777;DHT22;62088;50.240;2.696;2022-08-19T04:42:55;19.30;78.60
73777;DHT22;62088;50.240;2.696;2022-08-19T04:45:22;19.40;78.60
73777;DHT22;62088;50.240;2.696;2022-08-19T04:47:54;19.40;78.60
73777;DHT22;62088;50.240;2.696;2022-08-19T04:50:43;19.40;78.60
73777;DHT22;62088;50.240;2.696;2022-08-19T04:53:10;19.40;78.60
73777;DHT22;62088;50.240;2.696;2022-08-19T04:55:41;19.40;78.60
73777;DHT22;62088;50.240;2.696;2022-08-19T04:58:08;19.40;78.60
73777;DHT22;62088;50.240;2.696;2022-08-19T05:00:38;19.40;78.60
73777;DHT22;62088;50.240;2.696;2022-08-19T05:03:07;19.40;78.70
73777;DHT22;62088;50.240;2.696;2022-08-19T05:05:37;19.40;78.60
73777;DHT22;62088;50.240;2.696;2022-08-19T05:08:16;19.40;78.70
73777;DHT22;62088;50.240;2.696;2022-08-19T05:10:57;19.40;78.70
73777;DHT22;62088;50.240;2.696;2022-08-19T05:13:24;19.40;78.70
73777;DHT22;62088;50.240;2.696;2022-08-19T05:15:58;19.40;78.70
73777;DHT22;62088;50.240;2.696;2022-08-19T05:18:25;19.40;78.80
73777;DHT22;62088;50.240;2.696;2022-08-19T05:21:13;19.50;78.80
73777;DHT22;62088;50.240;2.696;2022-08-19T05:23:59;19.40;78.80
73777;DHT22;62088;50.240;2.696;2022-08-19T05:26:26;19.50;78.80
73777;DHT22;62088;50.240;2.696;2022-08-19T05:28:54;19.50;78.80
73777;DHT22;62088;50.240;2.696;2022-08-19T05:31:21;19.50;78.90
73777;DHT22;62088;50.240;2.696;2022-08-19T05:33:48;19.40;79.00
73777;DHT22;62088;50.240;2.696;2022-08-19T05:36:15;19.40;79.00
73777;DHT22;62088;50.240;2.696;2022-08-19T05:38:43;19.50;79.20
73777;DHT22;62088;50.240;2.696;2022-08-19T05:41:13;19.40;79.40
73777;DHT22;62088;50.240;2.696;2022-08-19T05:43:41;19.40;79.60
73777;DHT22;62088;50.240;2.696;2022-08-19T05:46:08;19.40;79.70
73777;DHT22;62088;50.240;2.696;2022-08-19T05:48:42;19.40;79.90
73777;DHT22;62088;50.240;2.696;2022-08-19T05:51:09;19.40;80.00
73777;DHT22;62088;50.240;2.696;2022-08-19T05:53:37;19.40;80.10
73777;DHT22;62088;50.240;2.696;2022-08-19T05:56:09;19.40;80.20
73777;DHT22;62088;50.240;2.696;2022-08-19T05:58:37;19.50;80.30
73777;DHT22;62088;50.240;2.696;2022-08-19T06:01:09;19.50;80.40
73777;DHT22;62088;50.240;2.696;2022-08-19T06:03:37;19.50;80.50
73777;DHT22;62088;50.240;2.696;2022-08-19T06:06:06;19.50;80.60
73777;DHT22;62088;50.240;2.696;2022-08-19T06:08:35;19.50;80.70
73777;DHT22;62088;50.240;2.696;2022-08-19T06:11:17;19.50;80.70
73777;DHT22;62088;50.240;2.696;2022-08-19T06:13:45;19.60;80.70
73777;DHT22;62088;50.240;2.696;2022-08-19T06:16:14;19.60;80.80
73777;DHT22;62088;50.240;2.696;2022-08-19T06:18:50;19.70;80.80
73777;DHT22;62088;50.240;2.696;2022-08-19T06:21:23;19.70;80.80
73777;DHT22;62088;50.240;2.696;2022-08-19T06:23:51;19.70;80.90
73777;DHT22;62088;50.240;2.696;2022-08-19T06:26:19;19.80;80.90
73777;DHT22;62088;50.240;2.696;2022-08-19T06:28:47;19.90;80.80
73777;DHT22;62088;50.240;2.696;2022-08-19T06:31:27;19.90;80.80
73777;DHT22;62088;50.240;2.696;2022-08-19T06:33:54;19.90;80.80
73777;DHT22;62088;50.240;2.696;2022-08-19T06:36:27;19.90;80.70
73777;DHT22;62088;50.240;2.696;2022-08-19T06:39:09;19.90;80.60
73777;DHT22;62088;50.240;2.696;2022-08-19T06:41:42;19.90;80.60
73777;DHT22;62088;50.240;2.696;2022-08-19T06:44:19;20.00;80.50
73777;DHT22;62088;50.240;2.696;2022-08-19T06:46:46;20.00;80.50
73777;DHT22;62088;50.240;2.696;2022-08-19T06:49:21;20.00;80.30
73777;DHT22;62088;50.240;2.696;2022-08-19T06:51:49;20.10;80.20
73777;DHT22;62088;50.240;2.696;2022-08-19T06:54:18;20.00;80.10
73777;DHT22;62088;50.240;2.696;2022-08-19T06:56:46;20.10;80.10
73777;DHT22;62088;50.240;2.696;2022-08-19T06:59:15;20.10;80.10
73777;DHT22;62088;50.240;2.696;2022-08-19T07:01:48;20.10;80.10
73777;DHT22;62088;50.240;2.696;2022-08-19T07:04:19;20.10;80.00
73777;DHT22;62088;50.240;2.696;2022-08-19T07:06:47;20.10;79.90
73777;DHT22;62088;50.240;2.696;2022-08-19T07:09:21;20.10;79.90
73777;DHT22;62088;50.240;2.696;2022-08-19T07:11:50;20.20;79.80
73777;DHT22;62088;50.240;2.696;2022-08-19T07:14:21;20.20;79.80
73777;DHT22;62088;50.240;2.696;2022-08-19T07:16:49;20.20;79.80
73777;DHT22;62088;50.240;2.696;2022-08-19T07:19:19;20.30;79.80
73777;DHT22;62088;50.240;2.696;2022-08-19T07:21:49;20.20;79.70
73777;DHT22;62088;50.240;2.696;2022-08-19T07:24:23;20.30;79.70
73777;DHT22;62088;50.240;2.696;2022-08-19T07:26:53;20.30;79.70
73777;DHT22;62088;50.240;2.696;2022-08-19T07:29:21;20.30;79.60
73777;DHT22;62088;50.240;2.696;2022-08-19T07:31:52;20.30;79.60
73777;DHT22;62088;50.240;2.696;2022-08-19T07:34:24;20.40;79.60
73777;DHT22;62088;50.240;2.696;2022-08-19T07:36:53;20.40;79.60
73777;DHT22;62088;50.240;2.696;2022-08-19T07:39:27;20.40;79.70
73777;DHT22;62088;50.240;2.696;2022-08-19T07:41:56;20.40;79.70
73777;DHT22;62088;50.240;2.696;2022-08-19T07:44:23;20.40;79.60
73777;DHT22;62088;50.240;2.696;2022-08-19T07:46:53;20.50;79.60
73777;DHT22;62088;50.240;2.696;2022-08-19T07:49:23;20.50;79.60
73777;DHT22;62088;50.240;2.696;2022-08-19T07:51:53;20.60;79.60
73777;DHT22;62088;50.240;2.696;2022-08-19T07:54:21;20.70;79.60
73777;DHT22;62088;50.240;2.696;2022-08-19T07:56:49;20.70;79.40
73777;DHT22;62088;50.240;2.696;2022-08-19T07:59:19;20.80;79.20
73777;DHT22;62088;50.240;2.696;2022-08-19T08:01:47;20.80;79.10
73777;DHT22;62088;50.240;2.696;2022-08-19T08:04:17;20.90;79.00
73777;DHT22;62088;50.240;2.696;2022-08-19T08:07:05;20.90;78.90
73777;DHT22;62088;50.240;2.696;2022-08-19T08:09:57;20.90;78.60
73777;DHT22;62088;50.240;2.696;2022-08-19T08:12:33;20.90;78.50
73777;DHT22;62088;50.240;2.696;2022-08-19T08:15:05;20.90;78.30
73777;DHT22;62088;50.240;2.696;2022-08-19T08:17:34;20.90;78.30
73777;DHT22;62088;50.240;2.696;2022-08-19T08:20:15;21.00;78.10
73777;DHT22;62088;50.240;2.696;2022-08-19T08:22:44;21.00;78.10
73777;DHT22;62088;50.240;2.696;2022-08-19T08:25:30;21.10;78.30
73777;DHT22;62088;50.240;2.696;2022-08-19T08:28:02;21.20;78.20
73777;DHT22;62088;50.240;2.696;2022-08-19T08:30:30;21.30;78.00
73777;DHT22;62088;50.240;2.696;2022-08-19T08:33:00;21.40;77.80
73777;DHT22;62088;50.240;2.696;2022-08-19T08:35:28;21.40;77.50
73777;DHT22;62088;50.240;2.696;2022-08-19T08:37:55;21.50;77.20
73777;DHT22;62088;50.240;2.696;2022-08-19T08:43:06;21.80;76.40
73777;DHT22;62088;50.240;2.696;2022-08-19T08:45:43;21.90;76.10
73777;DHT22;62088;50.240;2.696;2022-08-19T08:51:37;22.20;75.60
73777;DHT22;62088;50.240;2.696;2022-08-19T08:54:14;22.30;75.00
73777;DHT22;62088;50.240;2.696;2022-08-19T08:56:42;22.40;74.70
73777;DHT22;62088;50.240;2.696;2022-08-19T09:01:48;22.40;74.00
73777;DHT22;62088;50.240;2.696;2022-08-19T09:04:16;22.40;73.70
73777;DHT22;62088;50.240;2.696;2022-08-19T09:10:04;22.50;73.70
73777;DHT22;62088;50.240;2.696;2022-08-19T09:12:54;22.50;73.50
73777;DHT22;62088;50.240;2.696;2022-08-19T09:15:30;22.60;73.30
73777;DHT22;62088;50.240;2.696;2022-08-19T09:18:04;22.60;73.00
73777;DHT22;62088;50.240;2.696;2022-08-19T09:20:33;22.60;73.00
73777;DHT22;62088;50.240;2.696;2022-08-19T09:23:00;22.70;73.10
73777;DHT22;62088;50.240;2.696;2022-08-19T09:25:28;22.70;73.20
73777;DHT22;62088;50.240;2.696;2022-08-19T09:27:56;22.70;73.10
73777;DHT22;62088;50.240;2.696;2022-08-19T09:30:32;22.80;73.20
73777;DHT22;62088;50.240;2.696;2022-08-19T09:33:00;22.80;73.30
73777;DHT22;62088;50.240;2.696;2022-08-19T09:35:29;22.80;73.20
73777;DHT22;62088;50.240;2.696;2022-08-19T09:37:58;22.90;73.10
73777;DHT22;62088;50.240;2.696;2022-08-19T09:40:29;22.90;73.00
73777;DHT22;62088;50.240;2.696;2022-08-19T09:43:01;22.90;72.80
73777;DHT22;62088;50.240;2.696;2022-08-19T09:45:38;22.90;72.80
73777;DHT22;62088;50.240;2.696;2022-08-19T09:48:05;22.90;72.80
73777;DHT22;62088;50.240;2.696;2022-08-19T09:50:32;22.90;72.70
73777;DHT22;62088;50.240;2.696;2022-08-19T09:53:01;22.90;72.50
73777;DHT22;62088;50.240;2.696;2022-08-19T09:55:28;22.90;72.30
73777;DHT22;62088;50.240;2.696;2022-08-19T09:57:58;22.90;72.20
73777;DHT22;62088;50.240;2.696;2022-08-19T10:00:25;22.90;72.10
73777;DHT22;62088;50.240;2.696;2022-08-19T10:02:53;22.90;71.90
73777;DHT22;62088;50.240;2.696;2022-08-19T10:05:20;22.90;71.90
73777;DHT22;62088;50.240;2.696;2022-08-19T10:08:09;22.90;72.10
73777;DHT22;62088;50.240;2.696;2022-08-19T10:10:40;22.90;72.00
73777;DHT22;62088;50.240;2.696;2022-08-19T10:13:15;22.90;72.00
73777;DHT22;62088;50.240;2.696;2022-08-19T10:15:43;22.90;72.10
73777;DHT22;62088;50.240;2.696;2022-08-19T10:18:14;22.90;72.30
73777;DHT22;62088;50.240;2.696;2022-08-19T10:20:46;22.90;72.30
73777;DHT22;62088;50.240;2.696;2022-08-19T10:23:20;23.00;72.60
73777;DHT22;62088;50.240;2.696;2022-08-19T10:25:47;23.10;72.80
73777;DHT22;62088;50.240;2.696;2022-08-19T10:28:14;23.20;72.70
73777;DHT22;62088;50.240;2.696;2022-08-19T10:30:45;23.40;72.80
73777;DHT22;62088;50.240;2.696;2022-08-19T10:33:12;23.50;72.40
73777;DHT22;62088;50.240;2.696;2022-08-19T10:35:40;23.80;71.90
73777;DHT22;62088;50.240;2.696;2022-08-19T10:38:23;23.90;71.00
73777;DHT22;62088;50.240;2.696;2022-08-19T10:41:05;24.10;69.60
73777;DHT22;62088;50.240;2.696;2022-08-19T10:43:33;24.20;69.30
73777;DHT22;62088;50.240;2.696;2022-08-19T10:46:08;24.20;69.30
73777;DHT22;62088;50.240;2.696;2022-08-19T10:48:41;24.30;69.20
73777;DHT22;62088;50.240;2.696;2022-08-19T10:51:09;24.30;69.10
73777;DHT22;62088;50.240;2.696;2022-08-19T10:53:56;24.40;68.90
73777;DHT22;62088;50.240;2.696;2022-08-19T10:56:25;24.40;68.80
73777;DHT22;62088;50.240;2.696;2022-08-19T10:59:11;24.40;68.90
73777;DHT22;62088;50.240;2.696;2022-08-19T11:01:42;24.50;69.20
73777;DHT22;62088;50.240;2.696;2022-08-19T11:04:10;24.50;69.30
73777;DHT22;62088;50.240;2.696;2022-08-19T11:06:41;24.60;69.30
73777;DHT22;62088;50.240;2.696;2022-08-19T11:09:10;24.60;69.10
73777;DHT22;62088;50.240;2.696;2022-08-19T11:11:38;24.70;69.00
73777;DHT22;62088;50.240;2.696;2022-08-19T11:14:13;24.70;69.00
73777;DHT22;62088;50.240;2.696;2022-08-19T11:16:41;24.80;69.00
73777;DHT22;62088;50.240;2.696;2022-08-19T11:19:10;24.80;69.00
73777;DHT22;62088;50.240;2.696;2022-08-19T11:21:41;24.90;68.50
73777;DHT22;62088;50.240;2.696;2022-08-19T11:24:12;24.90;68.10
73777;DHT22;62088;50.240;2.696;2022-08-19T11:26:42;24.90;67.70
73777;DHT22;62088;50.240;2.696;2022-08-19T11:29:11;24.90;67.50
73777;DHT22;62088;50.240;2.696;2022-08-19T11:31:42;24.90;67.60
73777;DHT22;62088;50.240;2.696;2022-08-19T11:34:11;24.90;67.60
73777;DHT22;62088;50.240;2.696;2022-08-19T11:36:41;25.00;67.80
73777;DHT22;62088;50.240;2.696;2022-08-19T11:39:11;25.10;68.00
73777;DHT22;62088;50.240;2.696;2022-08-19T11:41:38;25.40;67.80
73777;DHT22;62088;50.240;2.696;2022-08-19T11:44:06;25.40;67.30
73777;DHT22;62088;50.240;2.696;2022-08-19T11:46:36;25.50;67.60
73777;DHT22;62088;50.240;2.696;2022-08-19T11:49:05;25.60;68.80
73777;DHT22;62088;50.240;2.696;2022-08-19T11:51:39;25.60;69.60
73777;DHT22;62088;50.240;2.696;2022-08-19T11:54:06;25.50;70.00
73777;DHT22;62088;50.240;2.696;2022-08-19T11:56:33;25.60;70.50
73777;DHT22;62088;50.240;2.696;2022-08-19T11:59:00;25.50;70.90
73777;DHT22;62088;50.240;2.696;2022-08-19T12:01:27;25.50;71.00
73777;DHT22;62088;50.240;2.696;2022-08-19T12:03:55;25.50;71.00
73777;DHT22;62088;50.240;2.696;2022-08-19T12:06:25;25.40;69.30
73777;DHT22;62088;50.240;2.696;2022-08-19T12:08:56;25.30;68.90
73777;DHT22;62088;50.240;2.696;2022-08-19T12:11:24;25.10;69.00
73777;DHT22;62088;50.240;2.696;2022-08-19T12:13:51;24.90;69.50
73777;DHT22;62088;50.240;2.696;2022-08-19T12:16:21;24.80;70.00
73777;DHT22;62088;50.240;2.696;2022-08-19T12:18:50;24.70;70.70
73777;DHT22;62088;50.240;2.696;2022-08-19T12:21:23;24.50;71.40
73777;DHT22;62088;50.240;2.696;2022-08-19T12:23:51;24.40;72.10
73777;DHT22;62088;50.240;2.696;2022-08-19T12:26:22;24.40;72.80
73777;DHT22;62088;50.240;2.696;2022-08-19T12:28:49;24.40;73.60
73777;DHT22;62088;50.240;2.696;2022-08-19T12:31:17;24.40;74.20
73777;DHT22;62088;50.240;2.696;2022-08-19T12:33:46;24.40;74.40
73777;DHT22;62088;50.240;2.696;2022-08-19T12:36:15;24.40;74.40
73777;DHT22;62088;50.240;2.696;2022-08-19T12:38:42;24.40;74.30
73777;DHT22;62088;50.240;2.696;2022-08-19T12:41:12;24.40;74.30
73777;DHT22;62088;50.240;2.696;2022-08-19T12:43:40;24.50;74.40
73777;DHT22;62088;50.240;2.696;2022-08-19T12:46:09;24.40;74.40
73777;DHT22;62088;50.240;2.696;2022-08-19T12:48:38;24.50;74.30
73777;DHT22;62088;50.240;2.696;2022-08-19T12:51:13;24.60;74.00
73777;DHT22;62088;50.240;2.696;2022-08-19T12:53:41;24.60;73.40
73777;DHT22;62088;50.240;2.696;2022-08-19T12:56:10;24.70;73.10
73777;DHT22;62088;50.240;2.696;2022-08-19T12:58:39;24.60;72.90
73777;DHT22;62088;50.240;2.696;2022-08-19T13:01:10;24.70;72.50
73777;DHT22;62088;50.240;2.696;2022-08-19T13:03:38;24.70;71.80
73777;DHT22;62088;50.240;2.696;2022-08-19T13:06:07;24.70;71.80
73777;DHT22;62088;50.240;2.696;2022-08-19T13:08:35;24.70;71.90
73777;DHT22;62088;50.240;2.696;2022-08-19T13:11:13;24.70;71.80
73777;DHT22;62088;50.240;2.696;2022-08-19T13:13:41;24.70;72.00
73777;DHT22;62088;50.240;2.696;2022-08-19T13:16:10;24.80;72.50
73777;DHT22;62088;50.240;2.696;2022-08-19T13:18:39;24.90;72.00
73777;DHT22;62088;50.240;2.696;2022-08-19T13:21:07;25.10;71.70
73777;DHT22;62088;50.240;2.696;2022-08-19T13:23:35;25.30;71.40
73777;DHT22;62088;50.240;2.696;2022-08-19T13:26:05;25.40;70.20
73777;DHT22;62088;50.240;2.696;2022-08-19T13:28:33;25.50;69.50
73777;DHT22;62088;50.240;2.696;2022-08-19T13:31:22;25.60;68.30
73777;DHT22;62088;50.240;2.696;2022-08-19T13:34:08;25.60;67.80
73777;DHT22;62088;50.240;2.696;2022-08-19T13:36:36;25.60;67.50
73777;DHT22;62088;50.240;2.696;2022-08-19T13:39:05;25.70;67.60
73777;DHT22;62088;50.240;2.696;2022-08-19T13:41:32;25.70;66.50
73777;DHT22;62088;50.240;2.696;2022-08-19T13:44:00;25.70;66.20
73777;DHT22;62088;50.240;2.696;2022-08-19T13:46:28;25.70;66.40
73777;DHT22;62088;50.240;2.696;2022-08-19T13:48:56;25.70;66.40
73777;DHT22;62088;50.240;2.696;2022-08-19T13:51:23;25.60;66.50
73777;DHT22;62088;50.240;2.696;2022-08-19T13:53:51;25.60;66.20
73777;DHT22;62088;50.240;2.696;2022-08-19T13:56:18;25.60;66.30
73777;DHT22;62088;50.240;2.696;2022-08-19T13:58:52;25.60;66.30
73777;DHT22;62088;50.240;2.696;2022-08-19T14:01:21;25.60;66.10
73777;DHT22;62088;50.240;2.696;2022-08-19T14:03:50;25.60;66.20
73777;DHT22;62088;50.240;2.696;2022-08-19T14:06:18;25.70;66.10
73777;DHT22;62088;50.240;2.696;2022-08-19T14:08:47;25.60;65.90
73777;DHT22;62088;50.240;2.696;2022-08-19T14:11:14;25.60;65.80
73777;DHT22;62088;50.240;2.696;2022-08-19T14:13:41;25.60;65.70
73777;DHT22;62088;50.240;2.696;2022-08-19T14:16:13;25.60;65.50
73777;DHT22;62088;50.240;2.696;2022-08-19T14:18:41;25.60;65.50
73777;DHT22;62088;50.240;2.696;2022-08-19T14:21:13;25.60;65.40
73777;DHT22;62088;50.240;2.696;2022-08-19T14:23:41;25.60;65.20
73777;DHT22;62088;50.240;2.696;2022-08-19T14:26:10;25.60;65.20
73777;DHT22;62088;50.240;2.696;2022-08-19T14:28:39;25.50;65.00
73777;DHT22;62088;50.240;2.696;2022-08-19T14:31:14;25.50;65.00
73777;DHT22;62088;50.240;2.696;2022-08-19T14:33:46;25.40;64.80
73777;DHT22;62088;50.240;2.696;2022-08-19T14:36:13;25.40;64.70
73777;DHT22;62088;50.240;2.696;2022-08-19T14:38:40;25.40;64.60
73777;DHT22;62088;50.240;2.696;2022-08-19T14:41:09;25.30;64.70
73777;DHT22;62088;50.240;2.696;2022-08-19T14:43:36;25.20;64.70
73777;DHT22;62088;50.240;2.696;2022-08-19T14:46:03;25.10;64.90
73777;DHT22;62088;50.240;2.696;2022-08-19T14:48:30;25.10;65.00
73777;DHT22;62088;50.240;2.696;2022-08-19T14:50:57;25.00;65.10
73777;DHT22;62088;50.240;2.696;2022-08-19T14:53:24;24.90;65.10
73777;DHT22;62088;50.240;2.696;2022-08-19T14:55:51;24.90;65.40
73777;DHT22;62088;50.240;2.696;2022-08-19T14:58:18;24.80;65.80
73777;DHT22;62088;50.240;2.696;2022-08-19T15:00:58;24.70;66.30
73777;DHT22;62088;50.240;2.696;2022-08-19T15:03:26;24.60;67.00
73777;DHT22;62088;50.240;2.696;2022-08-19T15:05:53;24.50;67.70
73777;DHT22;62088;50.240;2.696;2022-08-19T15:08:20;24.40;68.40
73777;DHT22;62088;50.240;2.696;2022-08-19T15:10:52;24.30;68.90
73777;DHT22;62088;50.240;2.696;2022-08-19T15:13:18;24.20;69.30
73777;DHT22;62088;50.240;2.696;2022-08-19T15:15:46;24.10;69.70
73777;DHT22;62088;50.240;2.696;2022-08-19T15:18:14;24.00;70.10
73777;DHT22;62088;50.240;2.696;2022-08-19T15:20:42;23.90;70.50
73777;DHT22;62088;50.240;2.696;2022-08-19T15:23:16;23.90;70.90
73777;DHT22;62088;50.240;2.696;2022-08-19T15:25:43;23.80;71.30
73777;DHT22;62088;50.240;2.696;2022-08-19T15:28:10;23.80;71.70
73777;DHT22;62088;50.240;2.696;2022-08-19T15:30:39;23.70;72.20
73777;DHT22;62088;50.240;2.696;2022-08-19T15:33:07;23.60;72.50
73777;DHT22;62088;50.240;2.696;2022-08-19T15:35:34;23.50;72.90
73777;DHT22;62088;50.240;2.696;2022-08-19T15:38:01;23.40;73.20
73777;DHT22;62088;50.240;2.696;2022-08-19T15:40:28;23.40;73.60
73777;DHT22;62088;50.240;2.696;2022-08-19T15:42:56;23.40;74.00
73777;DHT22;62088;50.240;2.696;2022-08-19T15:45:24;23.30;74.30
73777;DHT22;62088;50.240;2.696;2022-08-19T15:47:59;23.20;74.70
73777;DHT22;62088;50.240;2.696;2022-08-19T15:50:26;23.10;75.00
73777;DHT22;62088;50.240;2.696;2022-08-19T15:52:58;23.10;75.30
73777;DHT22;62088;50.240;2.696;2022-08-19T15:55:29;23.10;75.50
73777;DHT22;62088;50.240;2.696;2022-08-19T15:58:05;23.10;75.60
73777;DHT22;62088;50.240;2.696;2022-08-19T16:00:59;23.00;75.80
73777;DHT22;62088;50.240;2.696;2022-08-19T16:03:48;22.90;76.00
73777;DHT22;62088;50.240;2.696;2022-08-19T16:06:55;22.90;76.10